Latest Coastal Weather Observations for Cape Otway

IDT60701

Issued at 3:02 pm EST Friday 29 May 2020 (issued every 10 minutes, with the page automatically refreshed every 10 minutes)

About coastal observations | Map of coastal stations | Coastal observations for TAS | Marine services | Other Formats
Station Details ID: 090015 Name: CAPE OTWAY LIGHTHOUSE Lat: -38.86 Lon: 143.51 Height: 82.0 m
Data from the previous 72 hours. | See also: Recent months at Cape Otway
Date/Time
EST
Wind Sea
Height
m
Swell Vis
km
Cloud Weather Temp
°C
Press
hPa
Rain since
9am
mm
Dir  Spd
kts
Gust
kts
Height
m
Period
s
Dir
29/03:00pm WNW 9 10 - - - - - - - 15.5 1023.2 0.0
29/02:30pm WNW 11 16 - - - - - - - 16.2 1023.2 0.0
29/02:00pm WNW 11 18 - - - - - - - 15.7 1023.2 0.0
29/01:30pm NW 11 18 - - - - - - - 15.6 1023.6 0.0
29/01:00pm NW 12 18 - - - - - - - 15.6 1023.8 0.0
29/12:30pm NW 12 20 - - - - - - - 15.4 1024.0 0.0
29/12:00pm NW 10 16 - - - - - - - 15.1 1024.5 0.0
29/11:30am NW 12 19 - - - - - - - 14.8 1025.0 0.0
29/11:00am NW 11 17 - - - - - - - 14.8 1025.4 0.0
29/10:30am NW 10 15 - - - - - - - 14.0 1025.6 0.0
29/10:00am NNW 11 17 - - - - - - - 13.6 1025.5 0.0
29/09:30am NNW 11 16 - - - - - - - 12.9 1025.4 0.0
29/09:00am NNW 9 15 - - - - - - - 11.9 1025.0 0.0
29/08:30am NNW 9 13 - - - - - - - 11.1 1024.8 0.0
29/08:00am N 10 15 - - - - - - - 10.4 1024.5 0.0
29/07:30am NNW 10 14 - - - - - - - 10.2 1024.3 0.0
29/07:00am NNW 10 16 - - - - - - - 10.2 1024.2 0.0
29/06:30am NNW 10 14 - - - - - - - 10.2 1024.1 0.0
29/06:00am NNW 11 16 - - - - - - - 10.6 1023.8 0.0
29/05:30am NNW 10 14 - - - - - - - 10.5 1023.7 0.0
29/05:00am NNW 9 12 - - - - - - - 10.5 1023.3 0.0
29/04:30am N 9 13 - - - - - - - 10.5 1023.0 0.0
29/04:00am NNW 10 14 - - - - - - - 10.6 1022.8 0.0
29/03:30am NNW 9 13 - - - - - - - 10.9 1023.1 0.0
29/03:00am NNW 9 13 - - - - - - - 11.0 1023.1 0.0
29/02:30am NNW 8 11 - - - - - - - 10.7 1023.0 0.0
29/02:00am NNW 9 13 - - - - - - - 10.8 1023.1 0.0
29/01:30am NNW 8 12 - - - - - - - 10.9 1023.1 0.0
29/01:00am NNW 9 13 - - - - - - - 11.0 1023.2 0.0
29/12:30am NNW 9 13 - - - - - - - 11.4 1023.4 0.0
29/12:00am NNW 9 13 - - - - - - - 11.3 1023.5 0.0
 
Date/Time
EST
Wind Sea
Height
m
Swell Vis
km
Cloud Weather Temp
°C
Press
hPa
Rain since
9am
mm
Dir  Spd
kts
Gust
kts
Height
m
Period
s
Dir
28/11:30pm NW 10 15 - - - - - - - 11.8 1023.5 0.0
28/11:00pm NNW 10 17 - - - - - - - 11.3 1023.4 0.0
28/10:30pm NNW 10 13 - - - - - - - 11.5 1023.3 0.0
28/10:00pm NNW 9 14 - - - - - - - 11.5 1023.4 0.0
28/09:30pm NNW 9 14 - - - - - - - 11.4 1023.4 0.0
28/09:00pm NNW 9 11 - - - - - - - 11.4 1023.2 0.0
28/08:30pm NNW 9 14 - - - - - - - 11.7 1022.9 0.0
28/08:00pm NNW 9 14 - - - - - - - 11.8 1022.4 0.0
28/07:30pm NNW 9 12 - - - - - - - 11.9 1022.4 0.0
28/07:00pm NNW 9 12 - - - - - - - 12.3 1022.3 0.0
28/06:30pm NNW 8 12 - - - - - - - 12.5 1022.3 0.0
28/06:00pm NW 9 13 - - - - - - - 12.9 1022.1 0.0
28/05:30pm WNW 10 15 - - - - - - - 13.1 1021.8 0.0
28/05:00pm WNW 13 17 - - - - - - - 13.2 1021.5 0.0
28/04:30pm WNW 13 20 - - - - - - - 13.3 1021.2 0.0
28/04:00pm WNW 14 21 - - - - - - - 13.6 1020.8 0.0
28/03:30pm WNW 10 16 - - - - - - - 13.4 1020.6 0.0
28/03:06pm W 15 25 - - - - - - - 13.4 1020.6 0.0
28/03:00pm W 15 22 - - - - - - - 13.2 1020.5 0.0
28/02:30pm W 15 19 - - - - - - - 13.2 1020.4 0.0
28/02:05pm WNW 15 25 - - - - - - - 14.3 1020.3 0.0
28/02:00pm WNW 14 21 - - - - - - - 14.6 1020.3 0.0
28/01:30pm WNW 13 20 - - - - - - - 14.7 1020.3 0.0
28/01:00pm WNW 15 23 - - - - - - - 14.1 1020.4 0.0
28/12:30pm WNW 13 20 - - - - - - - 13.9 1020.5 0.0
28/12:00pm WNW 13 17 - - - - - - - 13.5 1020.6 0.0
28/11:30am WNW 11 17 - - - - - - - 13.6 1020.8 0.0
28/11:00am WNW 11 16 - - - - - - - 13.3 1020.9 0.0
28/10:30am WNW 11 17 - - - - - - - 13.2 1021.0 0.0
28/10:00am NW 12 17 - - - - - - - 12.2 1020.7 0.0
28/09:30am NW 13 18 - - - - - - - 12.0 1020.6 0.0
28/09:00am NW 12 19 - - - - - - - 11.8 1020.4 0.0
28/08:30am NW 12 19 - - - - - - - 11.8 1020.2 0.0
28/08:00am NW 14 22 - - - - - - - 11.7 1019.9 0.0
28/07:30am NW 12 18 - - - - - - - 11.4 1019.6 0.0
28/07:00am NW 11 17 - - - - - - - 11.5 1019.4 0.0
28/06:30am NW 13 20 - - - - - - - 11.7 1019.1 0.0
28/06:00am NW 10 17 - - - - - - - 11.4 1018.9 0.0
28/05:30am NW 11 17 - - - - - - - 11.4 1018.8 0.0
28/05:00am NW 11 17 - - - - - - - 11.0 1018.7 0.0
28/04:30am NW 10 15 - - - - - - - 11.3 1018.6 0.0
28/04:00am NW 12 18 - - - - - - - 11.8 1018.6 0.0
28/03:30am NW 11 17 - - - - - - - 11.7 1018.4 0.0
28/03:00am NW 11 17 - - - - - - - 11.9 1018.3 0.0
28/02:30am NW 9 15 - - - - - - - 12.0 1018.2 0.0
28/02:00am NW 9 15 - - - - - - - 12.1 1018.1 0.0
28/01:30am NW 10 16 - - - - - - - 12.4 1018.0 0.0
28/01:00am NW 9 15 - - - - - - - 12.4 1018.1 0.0
28/12:30am NW 10 16 - - - - - - - 12.0 1018.1 0.0
28/12:00am NW 9 15 - - - - - - - 12.5 1018.1 0.0
 
Date/Time
EST
Wind Sea
Height
m
Swell Vis
km
Cloud Weather Temp
°C
Press
hPa
Rain since
9am
mm
Dir  Spd
kts
Gust
kts
Height
m
Period
s
Dir
27/11:30pm NW 10 15 - - - - - - - 12.7 1017.8 0.0
27/11:00pm NW 10 16 - - - - - - - 13.1 1017.8 0.0
27/10:30pm NW 8 13 - - - - - - - 13.1 1017.8 0.0
27/10:00pm NW 9 15 - - - - - - - 13.2 1017.8 0.0
27/09:30pm NW 10 16 - - - - - - - 13.8 1017.7 0.0
27/09:00pm NNW 11 15 - - - - - - - 13.7 1017.6 0.0
27/08:30pm NNW 10 14 - - - - - - - 13.4 1017.4 0.0
27/08:00pm NNW 11 17 - - - - - - - 13.8 1017.4 0.0
27/07:30pm NNW 11 15 - - - - - - - 13.7 1017.2 0.0
27/07:00pm NNW 10 15 - - - - - - - 14.2 1017.1 0.0
27/06:30pm N 9 14 - - - - - - - 14.0 1017.0 0.0
27/06:00pm N 9 13 - - - - - - - 14.0 1016.9 0.0
27/05:30pm N 8 11 - - - - - - - 14.1 1016.7 0.0
27/05:00pm N 10 15 - - - - - - - 14.3 1016.3 0.0
27/04:30pm N 11 18 - - - - - - - 14.8 1016.1 0.0
27/04:00pm N 11 17 - - - - - - - 15.5 1016.2 0.0
27/03:30pm NNW 11 19 - - - - - - - 15.6 1016.1 0.0
27/03:00pm NNW 10 16 - - - - - - - 16.3 1015.9 0.0
27/02:30pm NNW 12 21 - - - - - - - 15.6 1016.0 0.0
27/02:00pm NNW 10 15 - - - - - - - 15.4 1016.4 0.0
27/01:30pm NW 8 13 - - - - - - - 15.7 1016.6 0.0
27/01:00pm NW 7 15 - - - - - - - 15.4 1016.7 0.0
27/12:30pm NNW 8 14 - - - - - - - 15.3 1017.2 0.0
27/12:00pm N 7 11 - - - - - - - 15.3 1017.7 0.0
27/11:30am NNW 8 15 - - - - - - - 16.0 1018.2 0.0
27/11:00am NNW 9 16 - - - - - - - 14.9 1018.6 0.0
27/10:30am NNW 6 9 - - - - - - - 14.6 1018.9 0.0
27/10:00am NNW 5 8 - - - - - - - 14.5 1018.9 0.0
27/09:30am NE 3 5 - - - - - - - 15.0 1018.9 0.0
27/09:00am NNE 4 6 - - - - - - - 13.4 1019.0 0.0
27/08:30am NNE 6 10 - - - - - - - 13.6 1019.0 0.0
27/08:00am N 8 14 - - - - - - - 13.5 1018.9 0.0
27/07:30am N 8 15 - - - - - - - 13.3 1018.9 0.0
27/07:00am N 8 12 - - - - - - - 13.2 1018.8 0.0
27/06:30am N 8 16 - - - - - - - 12.6 1018.7 0.0
27/06:00am N 8 13 - - - - - - - 12.8 1018.7 0.0
27/05:30am N 7 13 - - - - - - - 13.3 1018.7 0.0
27/05:00am NNW 7 13 - - - - - - - 13.6 1019.0 0.0
27/04:30am N 6 8 - - - - - - - 12.7 1019.1 0.0
27/04:00am ENE 4 5 - - - - - - - 12.0 1019.2 0.0
27/03:30am NNE 5 9 - - - - - - - 13.0 1019.2 0.0
27/03:00am N 8 13 - - - - - - - 13.0 1019.2 0.0
27/02:30am N 11 16 - - - - - - - 13.3 1019.2 0.0
27/02:00am N 10 18 - - - - - - - 13.3 1019.2 0.0
27/01:30am N 5 9 - - - - - - - 11.9 1019.6 0.0
27/01:00am NNW 5 10 - - - - - - - 12.1 1019.8 0.0
27/12:30am NNW 6 12 - - - - - - - 11.2 1019.9 0.0
27/12:00am ENE 3 5 - - - - - - - 10.0 1020.1 0.0
 
Date/Time
EST
Wind Sea
Height
m
Swell Vis
km
Cloud Weather Temp
°C
Press
hPa
Rain since
9am
mm
Dir  Spd
kts
Gust
kts
Height
m
Period
s
Dir
26/11:30pm NE 8 10 - - - - - - - 10.8 1019.8 0.0
26/11:00pm NE 6 7 - - - - - - - 10.6 1020.2 0.0
26/10:30pm NE 8 10 - - - - - - - 10.9 1020.2 0.0
26/10:00pm NE 8 10 - - - - - - - 11.3 1020.4 0.0
26/09:30pm NE 8 10 - - - - - - - 11.3 1020.6 0.0
26/09:00pm NE 9 13 - - - - - - - 11.3 1020.5 0.0
26/08:30pm NE 9 11 - - - - - - - 11.4 1020.8 0.0
26/08:00pm NE 9 11 - - - - - - - 11.4 1020.9 0.0
26/07:30pm NE 10 12 - - - - - - - 11.3 1020.8 0.0
26/07:00pm NE 9 11 - - - - - - - 11.0 1020.8 0.0
26/06:30pm NE 10 12 - - - - - - - 11.3 1020.8 0.0
26/06:00pm NE 9 12 - - - - - - - 12.1 1020.8 0.0
26/05:30pm NE 9 11 - - - - - - - 12.4 1020.8 0.0
26/05:00pm NE 5 8 - - - - - - - 13.4 1020.9 0.0
26/04:30pm NE 4 6 - - - - - - - 14.9 1021.1 0.0
26/04:00pm ESE 2 4 - - - - - - - 14.4 1021.2 0.0
26/03:30pm ESE 4 6 - - - - - - - 14.7 1021.3 0.0

Other formats

Comma delimited format used in spreadsheet applications
http://www.bom.gov.au/fwo/IDT60701/IDT60701.94842.axf

JavaScript Object Notation format (JSON) in row-major order
http://www.bom.gov.au/fwo/IDT60701/IDT60701.94842.json

Data quality

Most of these data are generated automatically and are frequently updated. Quality checks on data are not normally performed. It is possible for incorrect values to appear. Refer to information at About Latest Weather Observations and please check the disclaimer before using these data.